sensor_id;sensor_type;location;lat;lon;timestamp;pressure;altitude;pressure_sealevel;temperature;humidity
5877;BME280;2964;42.144;24.730;2023-05-02T00:00:38;144856.91;;;13.20;92.81
5877;BME280;2964;42.144;24.730;2023-05-02T00:03:05;144794.00;;;12.94;91.70
5877;BME280;2964;42.144;24.730;2023-05-02T00:05:33;144875.78;;;13.27;90.92
5877;BME280;2964;42.144;24.730;2023-05-02T00:07:59;144883.41;;;13.30;90.70
5877;BME280;2964;42.144;24.730;2023-05-02T00:10:26;144896.00;;;13.36;90.03
5877;BME280;2964;42.144;24.730;2023-05-02T00:12:54;144873.31;;;13.26;90.29
5877;BME280;2964;42.144;24.730;2023-05-02T00:15:21;144727.28;;;12.67;92.89
5877;BME280;2964;42.144;24.730;2023-05-02T00:17:48;144788.97;;;12.92;91.94
5877;BME280;2964;42.144;24.730;2023-05-02T00:20:14;144780.16;;;12.88;91.28
5877;BME280;2964;42.144;24.730;2023-05-02T00:22:41;144787.72;;;12.91;90.97
5877;BME280;2964;42.144;24.730;2023-05-02T00:25:08;144817.88;;;13.04;90.26
5877;BME280;2964;42.144;24.730;2023-05-02T00:27:40;144825.44;;;13.07;89.91
5877;BME280;2964;42.144;24.730;2023-05-02T00:30:09;144815.41;;;13.03;90.71
5877;BME280;2964;42.144;24.730;2023-05-02T00:32:36;144809.06;;;13.00;90.62
5877;BME280;2964;42.144;24.730;2023-05-02T00:35:03;144772.59;;;12.85;91.01
5877;BME280;2964;42.144;24.730;2023-05-02T00:37:30;144802.81;;;12.98;89.77
5877;BME280;2964;42.144;24.730;2023-05-02T00:39:57;144795.22;;;12.94;89.42
5877;BME280;2964;42.144;24.730;2023-05-02T00:42:24;144804.03;;;12.98;88.94
5877;BME280;2964;42.144;24.730;2023-05-02T00:44:50;144792.75;;;12.93;88.66
5877;BME280;2964;42.144;24.730;2023-05-02T00:47:19;144744.91;;;12.74;89.11
5877;BME280;2964;42.144;24.730;2023-05-02T00:49:45;144775.13;;;12.86;89.01
5877;BME280;2964;42.144;24.730;2023-05-02T00:52:12;144796.53;;;12.95;87.91
5877;BME280;2964;42.144;24.730;2023-05-02T00:54:39;144737.38;;;12.71;88.39
5877;BME280;2964;42.144;24.730;2023-05-02T00:57:06;144661.88;;;12.40;90.06
5877;BME280;2964;42.144;24.730;2023-05-02T00:59:33;144621.63;;;12.24;91.18
5877;BME280;2964;42.144;24.730;2023-05-02T01:02:14;144632.97;;;12.28;90.72
5877;BME280;2964;42.144;24.730;2023-05-02T01:04:55;144592.72;;;12.12;90.69
5877;BME280;2964;42.144;24.730;2023-05-02T01:07:38;144635.47;;;12.29;90.37
5877;BME280;2964;42.144;24.730;2023-05-02T01:10:16;144719.78;;;12.64;88.43
5877;BME280;2964;42.144;24.730;2023-05-02T01:12:49;144717.22;;;12.63;88.20
5877;BME280;2964;42.144;24.730;2023-05-02T01:15:21;144676.97;;;12.46;88.15
5877;BME280;2964;42.144;24.730;2023-05-02T01:17:49;144680.75;;;12.48;87.57
5877;BME280;2964;42.144;24.730;2023-05-02T01:20:20;144604.03;;;12.16;89.18
5877;BME280;2964;42.144;24.730;2023-05-02T01:22:49;144570.09;;;12.03;90.30
5877;BME280;2964;42.144;24.730;2023-05-02T01:25:25;144595.22;;;12.13;89.73
5877;BME280;2964;42.144;24.730;2023-05-02T01:28:00;144562.53;;;12.00;90.06
5877;BME280;2964;42.144;24.730;2023-05-02T01:30:33;144591.44;;;12.11;88.76
5877;BME280;2964;42.144;24.730;2023-05-02T01:33:03;144583.91;;;12.08;89.10
5877;BME280;2964;42.144;24.730;2023-05-02T01:35:32;144578.91;;;12.06;88.69
5877;BME280;2964;42.144;24.730;2023-05-02T01:38:01;144592.72;;;12.12;88.58
5877;BME280;2964;42.144;24.730;2023-05-02T01:40:28;144563.78;;;12.00;88.87
5877;BME280;2964;42.144;24.730;2023-05-02T01:42:56;144536.06;;;11.89;89.83
5877;BME280;2964;42.144;24.730;2023-05-02T01:45:25;144578.91;;;12.06;90.51
5877;BME280;2964;42.144;24.730;2023-05-02T01:47:57;144585.16;;;12.09;90.67
5877;BME280;2964;42.144;24.730;2023-05-02T01:50:24;144537.31;;;11.89;91.56
5877;BME280;2964;42.144;24.730;2023-05-02T01:52:52;144552.47;;;11.95;92.01
5877;BME280;2964;42.144;24.730;2023-05-02T01:55:20;144552.47;;;11.95;91.88
5877;BME280;2964;42.144;24.730;2023-05-02T01:57:48;144531.03;;;11.87;93.63
5877;BME280;2964;42.144;24.730;2023-05-02T02:00:17;144492.06;;;11.71;95.10
5877;BME280;2964;42.144;24.730;2023-05-02T02:02:45;144455.59;;;11.56;96.04
5877;BME280;2964;42.144;24.730;2023-05-02T02:05:16;144443.00;;;11.51;97.73
5877;BME280;2964;42.144;24.730;2023-05-02T02:07:44;144502.16;;;11.75;94.74
5877;BME280;2964;42.144;24.730;2023-05-02T02:10:11;144502.16;;;11.75;93.95
5877;BME280;2964;42.144;24.730;2023-05-02T02:12:40;144485.78;;;11.68;93.71
5877;BME280;2964;42.144;24.730;2023-05-02T02:15:12;144466.94;;;11.61;93.53
5877;BME280;2964;42.144;24.730;2023-05-02T02:17:42;144489.56;;;11.70;91.88
5877;BME280;2964;42.144;24.730;2023-05-02T02:20:10;144449.34;;;11.53;92.46
5877;BME280;2964;42.144;24.730;2023-05-02T02:22:42;144432.97;;;11.47;93.03
5877;BME280;2964;42.144;24.730;2023-05-02T02:25:11;144443.00;;;11.51;93.11
5877;BME280;2964;42.144;24.730;2023-05-02T02:27:39;144399.06;;;11.33;92.55
5877;BME280;2964;42.144;24.730;2023-05-02T02:30:07;144387.72;;;11.28;95.35
5877;BME280;2964;42.144;24.730;2023-05-02T02:32:34;144372.66;;;11.22;93.15
5877;BME280;2964;42.144;24.730;2023-05-02T02:35:01;144392.75;;;11.30;94.96
5877;BME280;2964;42.144;24.730;2023-05-02T02:37:30;144332.44;;;11.06;93.91
5877;BME280;2964;42.144;24.730;2023-05-02T02:40:06;144329.91;;;11.05;96.32
5877;BME280;2964;42.144;24.730;2023-05-02T02:42:38;144334.97;;;11.07;95.51
5877;BME280;2964;42.144;24.730;2023-05-02T02:45:17;144193.00;;;10.49;94.92
5877;BME280;2964;42.144;24.730;2023-05-02T02:47:49;144312.34;;;10.97;93.84
5877;BME280;2964;42.144;24.730;2023-05-02T02:50:23;144301.03;;;10.93;95.99
5877;BME280;2964;42.144;24.730;2023-05-02T02:52:54;144283.44;;;10.86;96.60
5877;BME280;2964;42.144;24.730;2023-05-02T02:55:35;144277.16;;;10.83;94.12
5877;BME280;2964;42.144;24.730;2023-05-02T02:58:14;144277.16;;;10.83;92.82
5877;BME280;2964;42.144;24.730;2023-05-02T03:00:44;144329.91;;;11.05;91.43
5877;BME280;2964;42.144;24.730;2023-05-02T03:03:13;144355.06;;;11.15;90.53
5877;BME280;2964;42.144;24.730;2023-05-02T03:05:40;144345.03;;;11.11;90.32
5877;BME280;2964;42.144;24.730;2023-05-02T03:08:08;144302.28;;;10.93;91.70
5877;BME280;2964;42.144;24.730;2023-05-02T03:10:36;144282.19;;;10.85;93.65
5877;BME280;2964;42.144;24.730;2023-05-02T03:13:03;144277.16;;;10.83;93.61
5877;BME280;2964;42.144;24.730;2023-05-02T03:18:28;144254.56;;;10.74;94.73
5877;BME280;2964;42.144;24.730;2023-05-02T03:20:55;144253.25;;;10.73;94.40
5877;BME280;2964;42.144;24.730;2023-05-02T03:23:22;144239.44;;;10.68;95.27
5877;BME280;2964;42.144;24.730;2023-05-02T03:25:50;144230.66;;;10.64;94.88
5877;BME280;2964;42.144;24.730;2023-05-02T03:28:17;144187.97;;;10.47;94.54
5877;BME280;2964;42.144;24.730;2023-05-02T03:30:43;144186.72;;;10.46;96.35
5877;BME280;2964;42.144;24.730;2023-05-02T03:33:10;144184.19;;;10.45;97.36
5877;BME280;2964;42.144;24.730;2023-05-02T03:35:37;144185.44;;;10.46;97.84
5877;BME280;2964;42.144;24.730;2023-05-02T03:38:03;144214.34;;;10.57;97.51
5877;BME280;2964;42.144;24.730;2023-05-02T03:40:30;144189.22;;;10.47;96.44
5877;BME280;2964;42.144;24.730;2023-05-02T03:42:58;144170.38;;;10.39;97.18
5877;BME280;2964;42.144;24.730;2023-05-02T03:45:25;144195.53;;;10.50;96.90
5877;BME280;2964;42.144;24.730;2023-05-02T03:47:51;144189.22;;;10.47;98.01
5877;BME280;2964;42.144;24.730;2023-05-02T03:50:18;144194.22;;;10.49;98.14
5877;BME280;2964;42.144;24.730;2023-05-02T03:52:45;144221.91;;;10.60;97.36
5877;BME280;2964;42.144;24.730;2023-05-02T03:55:12;144211.81;;;10.56;98.18
5877;BME280;2964;42.144;24.730;2023-05-02T03:57:39;144238.22;;;10.67;95.20
5877;BME280;2964;42.144;24.730;2023-05-02T04:00:09;144245.75;;;10.70;92.87
5877;BME280;2964;42.144;24.730;2023-05-02T04:02:36;144272.16;;;10.81;92.48
5877;BME280;2964;42.144;24.730;2023-05-02T04:05:02;144297.25;;;10.91;92.04
5877;BME280;2964;42.144;24.730;2023-05-02T04:07:29;144259.56;;;10.76;92.52
5877;BME280;2964;42.144;24.730;2023-05-02T04:09:56;144355.06;;;11.15;92.99
5877;BME280;2964;42.144;24.730;2023-05-02T04:12:23;144264.59;;;10.78;94.57
5877;BME280;2964;42.144;24.730;2023-05-02T04:14:49;144355.06;;;11.15;95.95
5877;BME280;2964;42.144;24.730;2023-05-02T04:17:17;144342.50;;;11.10;96.12
5877;BME280;2964;42.144;24.730;2023-05-02T04:19:44;144362.63;;;11.18;96.86
5877;BME280;2964;42.144;24.730;2023-05-02T04:22:10;144415.38;;;11.39;96.67
5877;BME280;2964;42.144;24.730;2023-05-02T04:24:37;144426.72;;;11.44;97.34
5877;BME280;2964;42.144;24.730;2023-05-02T04:27:04;144468.19;;;11.61;96.48
5877;BME280;2964;42.144;24.730;2023-05-02T04:29:30;144493.34;;;11.71;95.36
5877;BME280;2964;42.144;24.730;2023-05-02T04:31:57;144510.94;;;11.78;93.43
5877;BME280;2964;42.144;24.730;2023-05-02T04:34:25;144571.34;;;12.03;91.82
5877;BME280;2964;42.144;24.730;2023-05-02T04:36:52;144537.31;;;11.89;93.19
5877;BME280;2964;42.144;24.730;2023-05-02T04:39:19;144571.34;;;12.03;92.90
5877;BME280;2964;42.144;24.730;2023-05-02T04:41:46;144646.81;;;12.34;91.58
5877;BME280;2964;42.144;24.730;2023-05-02T04:44:12;144629.19;;;12.27;92.43
5877;BME280;2964;42.144;24.730;2023-05-02T04:46:39;144695.84;;;12.54;90.07
5877;BME280;2964;42.144;24.730;2023-05-02T04:49:05;144670.69;;;12.44;90.61
5877;BME280;2964;42.144;24.730;2023-05-02T04:51:34;144820.44;;;13.05;88.14
5877;BME280;2964;42.144;24.730;2023-05-02T04:54:00;145013.09;;;13.83;83.36
5877;BME280;2964;42.144;24.730;2023-05-02T04:56:27;145336.94;;;15.15;74.12
5877;BME280;2964;42.144;24.730;2023-05-02T04:58:54;145601.84;;;16.23;72.69
5877;BME280;2964;42.144;24.730;2023-05-02T05:01:20;146061.47;;;18.10;55.80
5877;BME280;2964;42.144;24.730;2023-05-02T05:03:48;146061.47;;;18.10;55.94
5877;BME280;2964;42.144;24.730;2023-05-02T05:06:15;146268.78;;;18.94;53.26
5877;BME280;2964;42.144;24.730;2023-05-02T05:08:43;146330.69;;;19.19;51.24
5877;BME280;2964;42.144;24.730;2023-05-02T05:11:10;146562.19;;;20.13;48.10
5877;BME280;2964;42.144;24.730;2023-05-02T05:13:37;146515.41;;;19.94;47.34
5877;BME280;2964;42.144;24.730;2023-05-02T05:16:04;146836.88;;;21.25;45.42
5877;BME280;2964;42.144;24.730;2023-05-02T05:18:31;146686.25;;;20.63;46.61
5877;BME280;2964;42.144;24.730;2023-05-02T05:21:04;146914.16;;;21.56;42.03
5877;BME280;2964;42.144;24.730;2023-05-02T05:23:31;146653.28;;;20.50;43.75
5877;BME280;2964;42.144;24.730;2023-05-02T05:26:07;146504.00;;;19.90;46.02
5877;BME280;2964;42.144;24.730;2023-05-02T05:28:34;146779.94;;;21.01;44.50
5877;BME280;2964;42.144;24.730;2023-05-02T05:31:04;146999.03;;;21.90;41.93
5877;BME280;2964;42.144;24.730;2023-05-02T05:33:30;147141.00;;;22.48;41.20
5877;BME280;2964;42.144;24.730;2023-05-02T05:36:02;147035.78;;;22.05;41.86
5877;BME280;2964;42.144;24.730;2023-05-02T05:38:29;147043.41;;;22.08;42.21
5877;BME280;2964;42.144;24.730;2023-05-02T05:40:56;146760.94;;;20.94;44.14
5877;BME280;2964;42.144;24.730;2023-05-02T05:43:24;146726.75;;;20.80;45.36
5877;BME280;2964;42.144;24.730;2023-05-02T05:45:51;146942.06;;;21.67;44.16
5877;BME280;2964;42.144;24.730;2023-05-02T05:48:18;147189.16;;;22.67;41.65
5877;BME280;2964;42.144;24.730;2023-05-02T05:50:45;147040.84;;;22.07;43.40
5877;BME280;2964;42.144;24.730;2023-05-02T05:53:12;146747.03;;;20.88;46.62
5877;BME280;2964;42.144;24.730;2023-05-02T05:55:38;146701.47;;;20.70;47.24
5877;BME280;2964;42.144;24.730;2023-05-02T05:58:07;146586.22;;;20.23;50.64
5877;BME280;2964;42.144;24.730;2023-05-02T06:00:35;147020.59;;;21.99;44.01
5877;BME280;2964;42.144;24.730;2023-05-02T06:03:02;146962.31;;;21.75;46.30
5877;BME280;2964;42.144;24.730;2023-05-02T06:05:29;147176.47;;;22.62;44.05
5877;BME280;2964;42.144;24.730;2023-05-02T06:07:56;147328.63;;;23.24;42.02
5877;BME280;2964;42.144;24.730;2023-05-02T06:10:23;147238.59;;;22.87;42.64
5877;BME280;2964;42.144;24.730;2023-05-02T06:12:49;147262.69;;;22.97;42.66
5877;BME280;2964;42.144;24.730;2023-05-02T06:15:16;147570.97;;;24.22;40.70
5877;BME280;2964;42.144;24.730;2023-05-02T06:17:44;147532.88;;;24.06;42.22
5877;BME280;2964;42.144;24.730;2023-05-02T06:20:11;147847.72;;;25.34;38.48
5877;BME280;2964;42.144;24.730;2023-05-02T06:22:38;147959.47;;;25.79;37.38
5877;BME280;2964;42.144;24.730;2023-05-02T06:25:05;148188.25;;;26.71;36.01
5877;BME280;2964;42.144;24.730;2023-05-02T06:27:33;148317.88;;;27.24;34.04
5877;BME280;2964;42.144;24.730;2023-05-02T06:30:00;148078.91;;;26.27;35.39
5877;BME280;2964;42.144;24.730;2023-05-02T06:32:29;147857.91;;;25.38;38.45
5877;BME280;2964;42.144;24.730;2023-05-02T06:34:57;148295.00;;;27.14;34.14
5877;BME280;2964;42.144;24.730;2023-05-02T06:37:24;148204.75;;;26.78;35.89
5877;BME280;2964;42.144;24.730;2023-05-02T06:39:50;148716.09;;;28.84;31.68
5877;BME280;2964;42.144;24.730;2023-05-02T06:42:17;148386.56;;;27.51;33.44
5877;BME280;2964;42.144;24.730;2023-05-02T06:44:44;148061.13;;;26.20;35.27
5877;BME280;2964;42.144;24.730;2023-05-02T06:47:10;148448.88;;;27.77;32.15
5877;BME280;2964;42.144;24.730;2023-05-02T06:49:37;148742.81;;;28.95;31.89
5877;BME280;2964;42.144;24.730;2023-05-02T06:52:05;148804.00;;;29.20;29.99
5877;BME280;2964;42.144;24.730;2023-05-02T06:54:32;148861.25;;;29.43;29.51
5877;BME280;2964;42.144;24.730;2023-05-02T06:56:58;148727.56;;;28.89;29.16
5877;BME280;2964;42.144;24.730;2023-05-02T06:59:26;148363.69;;;27.42;31.18
5877;BME280;2964;42.144;24.730;2023-05-02T07:01:53;148075.09;;;26.26;33.40
5877;BME280;2964;42.144;24.730;2023-05-02T07:04:19;148325.56;;;27.27;32.18
5877;BME280;2964;42.144;24.730;2023-05-02T07:06:49;148265.78;;;27.03;30.36
5877;BME280;2964;42.144;24.730;2023-05-02T07:09:17;148365.00;;;27.43;31.31
5877;BME280;2964;42.144;24.730;2023-05-02T07:11:44;148061.13;;;26.20;33.33
5877;BME280;2964;42.144;24.730;2023-05-02T07:14:10;148104.34;;;26.37;31.18
5877;BME280;2964;42.144;24.730;2023-05-02T07:16:37;148117.03;;;26.43;31.46
5877;BME280;2964;42.144;24.730;2023-05-02T07:19:04;148158.94;;;26.59;30.54
5877;BME280;2964;42.144;24.730;2023-05-02T07:21:31;148395.47;;;27.55;30.16
5877;BME280;2964;42.144;24.730;2023-05-02T07:23:58;148537.94;;;28.13;28.42
5877;BME280;2964;42.144;24.730;2023-05-02T07:26:26;148025.56;;;26.06;30.54
5877;BME280;2964;42.144;24.730;2023-05-02T07:28:53;148490.91;;;27.94;28.39
5877;BME280;2964;42.144;24.730;2023-05-02T07:31:20;148401.84;;;27.58;28.06
5877;BME280;2964;42.144;24.730;2023-05-02T07:33:46;148321.69;;;27.25;28.43
5877;BME280;2964;42.144;24.730;2023-05-02T07:36:13;148381.50;;;27.49;27.83
5877;BME280;2964;42.144;24.730;2023-05-02T07:38:40;148564.66;;;28.23;26.46
5877;BME280;2964;42.144;24.730;2023-05-02T07:41:06;148366.25;;;27.43;27.68
5877;BME280;2964;42.144;24.730;2023-05-02T07:43:34;148525.25;;;28.07;27.23
5877;BME280;2964;42.144;24.730;2023-05-02T07:46:03;148529.03;;;28.09;26.34
5877;BME280;2964;42.144;24.730;2023-05-02T07:48:30;148366.25;;;27.43;27.72
5877;BME280;2964;42.144;24.730;2023-05-02T07:51:05;148277.19;;;27.07;28.19
5877;BME280;2964;42.144;24.730;2023-05-02T07:53:32;148320.44;;;27.25;28.04
5877;BME280;2964;42.144;24.730;2023-05-02T07:55:58;148526.50;;;28.08;27.20
5877;BME280;2964;42.144;24.730;2023-05-02T07:58:25;147956.91;;;25.78;30.18
5877;BME280;2964;42.144;24.730;2023-05-02T08:00:53;148638.47;;;28.53;26.70
5877;BME280;2964;42.144;24.730;2023-05-02T08:03:20;148306.47;;;27.19;26.69
5877;BME280;2964;42.144;24.730;2023-05-02T08:05:46;148549.41;;;28.17;26.12
5877;BME280;2964;42.144;24.730;2023-05-02T08:08:13;148667.78;;;28.65;26.29
5877;BME280;2964;42.144;24.730;2023-05-02T08:10:40;148867.63;;;29.45;23.97
5877;BME280;2964;42.144;24.730;2023-05-02T08:13:06;148686.84;;;28.73;24.32
5877;BME280;2964;42.144;24.730;2023-05-02T08:15:33;148775.91;;;29.08;24.34
5877;BME280;2964;42.144;24.730;2023-05-02T08:18:01;148826.91;;;29.29;23.04
5877;BME280;2964;42.144;24.730;2023-05-02T08:20:29;148944.03;;;29.76;22.72
5877;BME280;2964;42.144;24.730;2023-05-02T08:22:56;148601.53;;;28.38;23.25
5877;BME280;2964;42.144;24.730;2023-05-02T08:25:23;148863.81;;;29.44;22.84
5877;BME280;2964;42.144;24.730;2023-05-02T08:27:49;148616.84;;;28.44;23.75
5877;BME280;2964;42.144;24.730;2023-05-02T08:30:16;148657.59;;;28.61;23.07
5877;BME280;2964;42.144;24.730;2023-05-02T08:32:43;148871.41;;;29.47;22.61
5877;BME280;2964;42.144;24.730;2023-05-02T08:35:11;148783.56;;;29.12;22.30
5877;BME280;2964;42.144;24.730;2023-05-02T08:37:38;148788.69;;;29.14;21.78
5877;BME280;2964;42.144;24.730;2023-05-02T08:40:07;148321.69;;;27.25;24.15
5877;BME280;2964;42.144;24.730;2023-05-02T08:42:40;148559.56;;;28.21;22.59
5877;BME280;2964;42.144;24.730;2023-05-02T08:45:08;148241.63;;;26.93;24.20
5877;BME280;2964;42.144;24.730;2023-05-02T08:47:37;148143.72;;;26.53;24.57
5877;BME280;2964;42.144;24.730;2023-05-02T08:50:05;147937.88;;;25.70;24.96
5877;BME280;2964;42.144;24.730;2023-05-02T08:52:35;147954.41;;;25.77;25.78
5877;BME280;2964;42.144;24.730;2023-05-02T08:55:02;148264.50;;;27.02;25.20
5877;BME280;2964;42.144;24.730;2023-05-02T08:57:29;148619.34;;;28.45;23.37
5877;BME280;2964;42.144;24.730;2023-05-02T08:59:56;148697.00;;;28.77;22.65
5877;BME280;2964;42.144;24.730;2023-05-02T09:02:34;148809.06;;;29.22;22.31
5877;BME280;2964;42.144;24.730;2023-05-02T09:05:06;148896.91;;;29.57;20.92
5877;BME280;2964;42.144;24.730;2023-05-02T09:07:43;148254.31;;;26.98;23.13
5877;BME280;2964;42.144;24.730;2023-05-02T09:10:10;148183.16;;;26.69;24.09
5877;BME280;2964;42.144;24.730;2023-05-02T09:12:37;148162.81;;;26.61;24.07
5877;BME280;2964;42.144;24.730;2023-05-02T09:15:11;148283.56;;;27.10;23.73
5877;BME280;2964;42.144;24.730;2023-05-02T09:17:42;148120.84;;;26.44;24.86
5877;BME280;2964;42.144;24.730;2023-05-02T09:20:10;148097.97;;;26.35;24.15
5877;BME280;2964;42.144;24.730;2023-05-02T09:22:37;147815.91;;;25.21;25.63
5877;BME280;2964;42.144;24.730;2023-05-02T09:25:06;147760.06;;;24.98;25.63
5877;BME280;2964;42.144;24.730;2023-05-02T09:27:52;147475.81;;;23.83;26.42
5877;BME280;2964;42.144;24.730;2023-05-02T09:30:21;147883.28;;;25.48;25.66
5877;BME280;2964;42.144;24.730;2023-05-02T09:32:49;147847.72;;;25.34;24.87
5877;BME280;2964;42.144;24.730;2023-05-02T09:35:17;147728.34;;;24.85;25.34
5877;BME280;2964;42.144;24.730;2023-05-02T09:37:50;147738.47;;;24.90;25.52
5877;BME280;2964;42.144;24.730;2023-05-02T09:40:18;147715.63;;;24.80;25.13
5877;BME280;2964;42.144;24.730;2023-05-02T09:42:45;147779.09;;;25.06;25.06
5877;BME280;2964;42.144;24.730;2023-05-02T09:45:20;147725.84;;;24.84;25.06
5877;BME280;2964;42.144;24.730;2023-05-02T09:47:47;147631.84;;;24.46;26.90
5877;BME280;2964;42.144;24.730;2023-05-02T09:50:34;147723.28;;;24.83;26.15
5877;BME280;2964;42.144;24.730;2023-05-02T09:53:02;147878.19;;;25.46;25.34
5877;BME280;2964;42.144;24.730;2023-05-02T09:55:30;147829.94;;;25.27;25.97
5877;BME280;2964;42.144;24.730;2023-05-02T09:57:58;147765.16;;;25.00;25.76
5877;BME280;2964;42.144;24.730;2023-05-02T10:00:38;147695.34;;;24.72;26.31
5877;BME280;2964;42.144;24.730;2023-05-02T10:03:05;147513.84;;;23.99;26.90
5877;BME280;2964;42.144;24.730;2023-05-02T10:05:35;147299.50;;;23.12;27.97
5877;BME280;2964;42.144;24.730;2023-05-02T10:08:03;147024.41;;;22.01;29.59
5877;BME280;2964;42.144;24.730;2023-05-02T10:10:32;146893.94;;;21.48;30.81
5877;BME280;2964;42.144;24.730;2023-05-02T10:13:03;146774.88;;;20.99;30.32
5877;BME280;2964;42.144;24.730;2023-05-02T10:15:31;146830.56;;;21.22;30.87
5877;BME280;2964;42.144;24.730;2023-05-02T10:17:59;146900.25;;;21.50;30.51
5877;BME280;2964;42.144;24.730;2023-05-02T10:20:31;146843.22;;;21.27;30.18
5877;BME280;2964;42.144;24.730;2023-05-02T10:23:00;146834.38;;;21.24;31.50
5877;BME280;2964;42.144;24.730;2023-05-02T10:25:27;146829.31;;;21.21;31.33
5877;BME280;2964;42.144;24.730;2023-05-02T10:27:56;146784.97;;;21.04;30.62
5877;BME280;2964;42.144;24.730;2023-05-02T10:30:24;146739.41;;;20.85;30.91
5877;BME280;2964;42.144;24.730;2023-05-02T10:32:51;146758.41;;;20.93;31.06
5877;BME280;2964;42.144;24.730;2023-05-02T10:35:19;146815.38;;;21.16;31.10
5877;BME280;2964;42.144;24.730;2023-05-02T10:37:47;146825.50;;;21.20;30.51
5877;BME280;2964;42.144;24.730;2023-05-02T10:40:14;146855.91;;;21.32;30.70
5877;BME280;2964;42.144;24.730;2023-05-02T10:42:43;146853.34;;;21.31;30.71
5877;BME280;2964;42.144;24.730;2023-05-02T10:45:29;146781.19;;;21.02;31.17
5877;BME280;2964;42.144;24.730;2023-05-02T10:48:14;146629.25;;;20.40;31.54
5877;BME280;2964;42.144;24.730;2023-05-02T10:50:45;146835.63;;;21.24;30.81
5877;BME280;2964;42.144;24.730;2023-05-02T10:53:37;146833.13;;;21.23;31.04
5877;BME280;2964;42.144;24.730;2023-05-02T10:56:18;146816.63;;;21.16;30.81
5877;BME280;2964;42.144;24.730;2023-05-02T10:58:47;146857.16;;;21.33;29.28
5877;BME280;2964;42.144;24.730;2023-05-02T11:01:37;146824.25;;;21.19;29.27
5877;BME280;2964;42.144;24.730;2023-05-02T11:04:06;146779.94;;;21.01;29.23
5877;BME280;2964;42.144;24.730;2023-05-02T11:06:34;146830.56;;;21.22;30.40
5877;BME280;2964;42.144;24.730;2023-05-02T11:09:31;146822.94;;;21.19;30.21
5877;BME280;2964;42.144;24.730;2023-05-02T11:11:58;146810.31;;;21.14;30.19
5877;BME280;2964;42.144;24.730;2023-05-02T11:14:47;146817.88;;;21.17;30.72
5877;BME280;2964;42.144;24.730;2023-05-02T11:17:16;146843.22;;;21.27;29.75
5877;BME280;2964;42.144;24.730;2023-05-02T11:23:21;146850.84;;;21.30;30.29
5877;BME280;2964;42.144;24.730;2023-05-02T11:25:50;146715.38;;;20.75;29.76
5877;BME280;2964;42.144;24.730;2023-05-02T11:28:40;146905.28;;;21.52;29.66
5877;BME280;2964;42.144;24.730;2023-05-02T11:31:08;146907.84;;;21.53;29.11
5877;BME280;2964;42.144;24.730;2023-05-02T11:33:36;146915.47;;;21.56;29.02
5877;BME280;2964;42.144;24.730;2023-05-02T11:36:03;146885.00;;;21.44;29.74
5877;BME280;2964;42.144;24.730;2023-05-02T11:38:37;146947.13;;;21.69;28.54
5877;BME280;2964;42.144;24.730;2023-05-02T11:41:04;146824.25;;;21.19;28.74
5877;BME280;2964;42.144;24.730;2023-05-02T11:43:31;146790.03;;;21.06;29.36
5877;BME280;2964;42.144;24.730;2023-05-02T11:45:58;146944.56;;;21.68;29.63
5877;BME280;2964;42.144;24.730;2023-05-02T11:48:26;146881.19;;;21.43;29.54
5877;BME280;2964;42.144;24.730;2023-05-02T11:50:56;146886.31;;;21.45;29.77
5877;BME280;2964;42.144;24.730;2023-05-02T11:53:27;146964.88;;;21.76;29.56
5877;BME280;2964;42.144;24.730;2023-05-02T11:55:55;146981.31;;;21.83;29.82
5877;BME280;2964;42.144;24.730;2023-05-02T11:58:24;146950.94;;;21.71;29.20
5877;BME280;2964;42.144;24.730;2023-05-02T12:00:54;146954.69;;;21.72;29.71
5877;BME280;2964;42.144;24.730;2023-05-02T12:03:27;146997.78;;;21.90;30.67
5877;BME280;2964;42.144;24.730;2023-05-02T12:05:55;146944.56;;;21.68;29.77
5877;BME280;2964;42.144;24.730;2023-05-02T12:08:24;146929.41;;;21.62;30.45
5877;BME280;2964;42.144;24.730;2023-05-02T12:10:52;146967.38;;;21.77;30.49
5877;BME280;2964;42.144;24.730;2023-05-02T12:13:21;146911.66;;;21.55;30.15
5877;BME280;2964;42.144;24.730;2023-05-02T12:15:49;146969.94;;;21.78;30.20
5877;BME280;2964;42.144;24.730;2023-05-02T12:18:18;146967.38;;;21.77;29.84
5877;BME280;2964;42.144;24.730;2023-05-02T12:20:45;146950.94;;;21.71;30.16
5877;BME280;2964;42.144;24.730;2023-05-02T12:23:13;146933.19;;;21.64;30.15
5877;BME280;2964;42.144;24.730;2023-05-02T12:25:41;146926.84;;;21.61;30.56
5877;BME280;2964;42.144;24.730;2023-05-02T12:28:08;146940.78;;;21.67;29.25
5877;BME280;2964;42.144;24.730;2023-05-02T12:30:37;146909.09;;;21.54;29.74
5877;BME280;2964;42.144;24.730;2023-05-02T12:33:05;146928.16;;;21.62;29.19
5877;BME280;2964;42.144;24.730;2023-05-02T12:35:33;146878.69;;;21.42;29.36
5877;BME280;2964;42.144;24.730;2023-05-02T12:38:11;146968.63;;;21.78;29.88
5877;BME280;2964;42.144;24.730;2023-05-02T12:40:47;146924.34;;;21.60;29.58
5877;BME280;2964;42.144;24.730;2023-05-02T12:43:15;146996.53;;;21.89;29.54
5877;BME280;2964;42.144;24.730;2023-05-02T12:45:42;146947.13;;;21.69;29.41
5877;BME280;2964;42.144;24.730;2023-05-02T12:48:23;147015.53;;;21.97;29.68
5877;BME280;2964;42.144;24.730;2023-05-02T12:50:50;147023.09;;;22.00;29.30
5877;BME280;2964;42.144;24.730;2023-05-02T12:53:17;146983.88;;;21.84;29.30
5877;BME280;2964;42.144;24.730;2023-05-02T12:56:05;147011.72;;;21.95;29.14
5877;BME280;2964;42.144;24.730;2023-05-02T12:58:39;147051.00;;;22.11;29.11
5877;BME280;2964;42.144;24.730;2023-05-02T13:01:07;147066.19;;;22.17;28.94
5877;BME280;2964;42.144;24.730;2023-05-02T13:03:34;146991.44;;;21.87;28.97
5877;BME280;2964;42.144;24.730;2023-05-02T13:06:00;146952.19;;;21.71;29.62
5877;BME280;2964;42.144;24.730;2023-05-02T13:08:27;146985.13;;;21.85;30.01
5877;BME280;2964;42.144;24.730;2023-05-02T13:10:54;147002.84;;;21.92;29.16
5877;BME280;2964;42.144;24.730;2023-05-02T13:13:22;147015.53;;;21.97;29.14
5877;BME280;2964;42.144;24.730;2023-05-02T13:15:48;147056.06;;;22.13;29.70